createdAt,value
2023-03-13T00:00:06.900Z,1.30
2023-03-13T00:10:12.580Z,1.20
2023-03-13T00:15:15.335Z,1.17
2023-03-13T00:20:18.157Z,1.13
2023-03-13T00:25:20.851Z,1.55
2023-03-13T00:30:23.572Z,1.00
2023-03-13T00:35:26.370Z,1.83
2023-03-13T00:40:29.337Z,2.08
2023-03-13T00:45:32.060Z,1.25
2023-03-13T00:50:34.753Z,1.27
2023-03-13T00:55:37.610Z,1.50
2023-03-13T01:00:40.307Z,1.35
2023-03-13T01:05:43.025Z,1.40
2023-03-13T01:10:46.049Z,1.60
2023-03-13T01:15:49.032Z,1.60
2023-03-13T01:20:51.921Z,1.30
2023-03-13T01:25:56.147Z,1.60
2023-03-13T01:36:05.150Z,1.30
2023-03-13T01:41:09.082Z,1.20
2023-03-13T01:46:19.650Z,1.27
2023-03-13T01:51:57.452Z,1.50
2023-03-13T01:57:07.424Z,1.30
2023-03-13T02:02:10.286Z,1.40
2023-03-13T02:07:15.937Z,1.30
2023-03-13T02:12:32.056Z,1.42
2023-03-13T02:17:36.118Z,1.35
2023-03-13T02:23:18.758Z,1.50
2023-03-13T02:28:39.505Z,1.48
2023-03-13T02:33:49.603Z,1.45
2023-03-13T02:39:01.775Z,1.30
2023-03-13T02:44:06.333Z,1.50
2023-03-13T02:49:25.055Z,2.00
2023-03-13T02:54:33.802Z,1.40
2023-03-13T02:59:36.903Z,1.27
2023-03-13T03:04:39.785Z,1.50
2023-03-13T03:09:42.580Z,1.70
2023-03-13T03:14:51.643Z,1.13
2023-03-13T03:19:54.669Z,1.50
2023-03-13T03:24:57.478Z,1.70
2023-03-13T03:30:00.779Z,1.77
2023-03-13T03:35:04.239Z,1.70
2023-03-13T03:40:07.730Z,1.63
2023-03-13T03:45:11.707Z,1.38
2023-03-13T03:50:14.640Z,1.58
2023-03-13T03:55:30.257Z,1.30
2023-03-13T04:00:33.407Z,1.63
2023-03-13T04:05:42.515Z,1.77
2023-03-13T04:10:45.985Z,1.27
2023-03-13T04:15:49.214Z,1.25
2023-03-13T04:21:01.907Z,1.35
2023-03-13T04:26:05.734Z,1.30
2023-03-13T04:31:08.841Z,1.35
2023-03-13T04:36:25.915Z,1.00
2023-03-13T04:41:48.839Z,0.90
2023-03-13T04:47:29.961Z,1.05
2023-03-13T04:52:51.607Z,0.85
2023-03-13T04:58:14.512Z,1.25
2023-03-13T05:03:28.583Z,1.00
2023-03-13T05:08:47.096Z,1.00
2023-03-13T05:13:59.103Z,1.10
2023-03-13T05:19:18.636Z,1.08
2023-03-13T05:24:36.699Z,1.10
2023-03-13T05:29:56.272Z,1.10
2023-03-13T05:35:17.738Z,0.70
2023-03-13T05:40:30.539Z,1.73
2023-03-13T05:46:05.544Z,0.60
2023-03-13T05:51:25.719Z,0.60
2023-03-13T05:56:54.547Z,0.40
2023-03-13T06:02:10.503Z,0.68
2023-03-13T06:07:17.997Z,0.90
2023-03-13T06:12:20.836Z,0.30
2023-03-13T06:17:25.755Z,1.10
2023-03-13T06:22:28.581Z,0.95
2023-03-13T06:27:31.309Z,0.70
2023-03-13T06:32:34.851Z,0.57
2023-03-13T06:37:37.792Z,0.73
2023-03-13T06:42:40.510Z,2.90
2023-03-13T06:47:43.329Z,1.10
2023-03-13T06:52:48.622Z,0.50
2023-03-13T06:57:52.865Z,0.60
2023-03-13T07:02:55.918Z,0.70
2023-03-13T07:07:58.764Z,0.60
2023-03-13T07:13:01.561Z,0.82
2023-03-13T07:18:04.338Z,1.05
2023-03-13T07:23:07.208Z,1.10
2023-03-13T07:28:10.070Z,1.08
2023-03-13T07:33:12.856Z,0.80
2023-03-13T07:38:15.605Z,0.40
2023-03-13T07:43:18.461Z,0.70
2023-03-13T07:48:21.940Z,1.10
2023-03-13T07:53:25.241Z,1.42
2023-03-13T07:58:30.727Z,0.75
2023-03-13T08:03:33.625Z,0.60
2023-03-13T08:08:37.263Z,0.50
2023-03-13T08:13:39.981Z,0.50
2023-03-13T08:18:45.198Z,0.50
2023-03-13T08:28:54.466Z,0.80
2023-03-13T08:33:57.439Z,0.63
2023-03-13T08:39:02.059Z,1.00
2023-03-13T08:44:05.781Z,0.83
2023-03-13T08:49:09.100Z,0.77
2023-03-13T08:54:11.881Z,0.70
2023-03-13T08:59:15.943Z,0.30
2023-03-13T09:04:19.705Z,0.50
2023-03-13T09:09:24.247Z,0.40
2023-03-13T09:14:27.423Z,0.40
2023-03-13T09:19:30.118Z,0.60
2023-03-13T09:24:32.923Z,0.60
2023-03-13T09:29:40.310Z,0.40
2023-03-13T09:34:43.057Z,0.55
2023-03-13T09:39:46.009Z,0.70
2023-03-13T09:45:06.603Z,0.60
2023-03-13T09:50:29.696Z,0.60
2023-03-13T09:55:37.567Z,0.60
2023-03-13T10:00:42.012Z,0.98
2023-03-13T10:05:49.773Z,0.60
2023-03-13T10:10:58.455Z,0.75
2023-03-13T10:16:11.097Z,0.70
2023-03-13T10:21:22.528Z,0.77
2023-03-13T10:26:31.173Z,0.77
2023-03-13T10:31:34.968Z,0.60
2023-03-13T10:36:55.500Z,0.60
2023-03-13T10:42:12.450Z,0.60
2023-03-13T10:47:15.983Z,0.60
2023-03-13T10:52:45.808Z,0.90
2023-03-13T10:57:57.885Z,0.65
2023-03-13T11:03:00.951Z,0.90
2023-03-13T11:08:23.712Z,0.57
2023-03-13T11:13:43.638Z,0.80
2023-03-13T11:18:55.248Z,0.70
2023-03-13T11:24:11.104Z,1.27
2023-03-13T11:29:31.862Z,0.82
2023-03-13T11:34:46.520Z,1.10
2023-03-13T11:40:21.694Z,0.50
2023-03-13T11:45:59.763Z,0.80
2023-03-13T11:51:26.803Z,1.10
2023-03-13T11:56:51.350Z,1.10
2023-03-13T12:01:59.299Z,0.98
2023-03-13T12:07:09.558Z,0.90
2023-03-13T12:12:51.922Z,1.60
2023-03-13T12:18:01.451Z,1.60
2023-03-13T12:23:07.479Z,1.02
2023-03-13T12:28:31.524Z,1.20
2023-03-13T12:33:43.880Z,1.30
2023-03-13T12:39:01.728Z,1.90
2023-03-13T12:44:10.098Z,1.98
2023-03-13T12:49:40.718Z,2.03
2023-03-13T12:54:49.667Z,1.70
2023-03-13T12:59:59.529Z,1.52
2023-03-13T13:05:02.954Z,1.60
2023-03-13T13:10:12.112Z,1.63
2023-03-13T13:15:23.903Z,2.30
2023-03-13T13:20:42.194Z,2.15
2023-03-13T13:25:45.038Z,1.60
2023-03-13T13:30:55.702Z,1.63
2023-03-13T13:36:12.702Z,2.30
2023-03-13T13:41:15.661Z,2.10
2023-03-13T13:46:18.659Z,1.38
2023-03-13T13:51:24.296Z,1.90
2023-03-13T13:56:30.072Z,2.70
2023-03-13T14:01:33.149Z,2.40
2023-03-13T14:06:37.574Z,2.38
2023-03-13T14:11:40.630Z,1.83
2023-03-13T14:16:54.272Z,2.67
2023-03-13T14:22:16.160Z,2.53
2023-03-13T14:27:22.421Z,2.28
2023-03-13T14:32:26.771Z,2.83
2023-03-13T14:37:37.321Z,2.42
2023-03-13T14:42:44.495Z,2.00
2023-03-13T14:47:47.288Z,1.15
2023-03-13T14:52:53.373Z,1.30
2023-03-13T14:58:21.040Z,1.30
2023-03-13T15:03:29.159Z,1.85
2023-03-13T15:08:31.945Z,1.83
2023-03-13T15:13:37.465Z,1.77
2023-03-13T15:18:40.352Z,2.35
2023-03-13T15:23:45.471Z,2.20
2023-03-13T15:28:48.471Z,1.38
2023-03-13T15:33:55.628Z,1.50
2023-03-13T15:38:58.512Z,1.63
2023-03-13T15:44:01.835Z,0.90
2023-03-13T15:49:04.843Z,1.23
2023-03-13T15:54:07.597Z,1.92
2023-03-13T15:59:15.394Z,2.08
2023-03-13T16:04:18.222Z,1.67
2023-03-13T16:09:21.027Z,2.13
2023-03-13T16:14:23.772Z,2.10
2023-03-13T16:19:26.549Z,2.15
2023-03-13T16:24:29.273Z,2.20
2023-03-13T16:29:31.965Z,2.28
2023-03-13T16:34:34.655Z,1.75
2023-03-13T16:39:37.475Z,1.75
2023-03-13T16:44:40.850Z,1.85
2023-03-13T16:49:45.724Z,2.22
2023-03-13T16:54:49.705Z,1.60
2023-03-13T16:59:52.460Z,1.60
2023-03-13T17:04:55.360Z,1.20
2023-03-13T17:09:58.145Z,1.27
2023-03-13T17:15:00.868Z,1.20
2023-03-13T17:20:06.225Z,1.23
2023-03-13T17:25:12.771Z,1.70
2023-03-13T17:30:20.385Z,1.88
2023-03-13T17:35:24.347Z,1.30
2023-03-13T17:40:29.100Z,1.23
2023-03-13T17:45:37.094Z,1.60
2023-03-13T17:50:39.944Z,0.80
2023-03-13T17:55:42.704Z,0.80
2023-03-13T18:00:47.829Z,1.00
2023-03-13T18:05:50.512Z,0.80
2023-03-13T18:10:53.252Z,0.80
2023-03-13T18:15:56.016Z,0.93
2023-03-13T18:20:58.783Z,0.90
2023-03-13T18:26:01.728Z,0.70
2023-03-13T18:31:04.897Z,0.82
2023-03-13T18:36:15.879Z,0.60
2023-03-13T18:41:19.400Z,1.00
2023-03-13T18:46:24.521Z,0.80
2023-03-13T18:51:28.631Z,0.98
2023-03-13T18:56:31.821Z,0.85
2023-03-13T19:01:34.829Z,0.70
2023-03-13T19:06:37.589Z,0.60
2023-03-13T19:11:40.261Z,0.60
2023-03-13T19:16:53.226Z,0.70
2023-03-13T19:21:56.611Z,0.70
2023-03-13T19:27:00.143Z,0.55
2023-03-13T19:32:07.866Z,0.70
2023-03-13T19:37:14.707Z,0.90
2023-03-13T19:42:17.654Z,0.60
2023-03-13T19:47:20.361Z,0.73
2023-03-13T19:52:23.092Z,0.52
2023-03-13T19:57:25.811Z,0.82
2023-03-13T20:02:28.637Z,0.70
2023-03-13T20:07:32.921Z,0.60
2023-03-13T20:12:35.688Z,0.80
2023-03-13T20:17:38.701Z,0.95
2023-03-13T20:22:41.592Z,0.80
2023-03-13T20:27:44.370Z,0.60
2023-03-13T20:32:58.743Z,0.60
2023-03-13T20:38:05.346Z,0.50
2023-03-13T20:43:08.204Z,0.70
2023-03-13T20:48:11.019Z,0.60
2023-03-13T20:53:15.386Z,0.60
2023-03-13T20:58:20.647Z,0.70
2023-03-13T21:03:23.382Z,0.70
2023-03-13T21:08:26.155Z,0.70
2023-03-13T21:13:28.858Z,0.80
2023-03-13T21:18:31.552Z,0.68
2023-03-13T21:23:34.811Z,0.68
2023-03-13T21:28:39.029Z,0.98
2023-03-13T21:33:42.821Z,1.00
2023-03-13T21:38:45.832Z,0.93
2023-03-13T21:43:48.790Z,1.20
2023-03-13T21:48:51.475Z,1.15
2023-03-13T21:53:54.360Z,1.70
2023-03-13T21:58:57.041Z,1.25
2023-03-13T22:03:59.738Z,1.60
2023-03-13T22:09:06.631Z,1.40
2023-03-13T22:14:09.448Z,1.27
2023-03-13T22:19:14.939Z,1.30
2023-03-13T22:25:00.860Z,3.50
2023-03-13T22:30:03.915Z,1.30
2023-03-13T22:35:07.398Z,1.20
2023-03-13T22:40:11.013Z,1.10
2023-03-13T22:45:14.486Z,1.20
2023-03-13T22:50:17.975Z,1.10
2023-03-13T22:55:20.866Z,1.27
2023-03-13T23:00:23.821Z,1.38
2023-03-13T23:05:26.834Z,1.20
2023-03-13T23:10:29.530Z,1.02
2023-03-13T23:15:42.876Z,1.08
2023-03-13T23:20:55.193Z,1.15
2023-03-13T23:26:02.208Z,1.30
2023-03-13T23:31:13.154Z,1.50
2023-03-13T23:36:18.071Z,1.60
2023-03-13T23:41:21.269Z,2.60
2023-03-13T23:46:28.824Z,2.30
2023-03-13T23:51:31.610Z,2.13
2023-03-13T23:56:34.651Z,1.55
